sensor_id;sensor_type;location;lat;lon;timestamp;P1;durP1;ratioP1;P2;durP2;ratioP2
14516;SDS011;7344;50.864;4.362;2024-02-15T00:01:58;12.43;;;6.23;;
14516;SDS011;7344;50.864;4.362;2024-02-15T00:04:23;12.53;;;6.60;;
14516;SDS011;7344;50.864;4.362;2024-02-15T00:06:49;11.63;;;6.10;;
14516;SDS011;7344;50.864;4.362;2024-02-15T00:09:15;17.77;;;6.23;;
14516;SDS011;7344;50.864;4.362;2024-02-15T00:11:40;13.57;;;5.93;;
14516;SDS011;7344;50.864;4.362;2024-02-15T00:14:06;13.07;;;6.13;;
14516;SDS011;7344;50.864;4.362;2024-02-15T00:16:34;13.37;;;6.00;;
14516;SDS011;7344;50.864;4.362;2024-02-15T00:19:00;9.97;;;5.70;;
14516;SDS011;7344;50.864;4.362;2024-02-15T00:21:26;16.40;;;6.00;;
14516;SDS011;7344;50.864;4.362;2024-02-15T00:23:52;12.37;;;6.10;;
14516;SDS011;7344;50.864;4.362;2024-02-15T00:26:20;11.27;;;5.20;;
14516;SDS011;7344;50.864;4.362;2024-02-15T00:28:46;12.90;;;5.73;;
14516;SDS011;7344;50.864;4.362;2024-02-15T00:31:13;12.50;;;5.33;;
14516;SDS011;7344;50.864;4.362;2024-02-15T00:33:38;8.20;;;4.77;;
14516;SDS011;7344;50.864;4.362;2024-02-15T00:36:04;10.60;;;4.97;;
14516;SDS011;7344;50.864;4.362;2024-02-15T00:38:33;9.37;;;5.00;;
14516;SDS011;7344;50.864;4.362;2024-02-15T00:40:59;9.90;;;4.53;;
14516;SDS011;7344;50.864;4.362;2024-02-15T00:43:26;6.20;;;4.73;;
14516;SDS011;7344;50.864;4.362;2024-02-15T00:45:52;11.27;;;4.70;;
14516;SDS011;7344;50.864;4.362;2024-02-15T00:48:18;10.17;;;4.27;;
14516;SDS011;7344;50.864;4.362;2024-02-15T00:50:44;10.00;;;4.47;;
14516;SDS011;7344;50.864;4.362;2024-02-15T00:53:09;9.10;;;4.40;;
14516;SDS011;7344;50.864;4.362;2024-02-15T00:55:35;9.70;;;4.37;;
14516;SDS011;7344;50.864;4.362;2024-02-15T00:58:01;8.60;;;3.80;;
14516;SDS011;7344;50.864;4.362;2024-02-15T01:00:27;10.87;;;4.97;;
14516;SDS011;7344;50.864;4.362;2024-02-15T01:02:53;6.93;;;3.77;;
14516;SDS011;7344;50.864;4.362;2024-02-15T01:05:19;10.00;;;4.67;;
14516;SDS011;7344;50.864;4.362;2024-02-15T01:07:45;11.03;;;3.70;;
14516;SDS011;7344;50.864;4.362;2024-02-15T01:10:10;12.47;;;4.23;;
14516;SDS011;7344;50.864;4.362;2024-02-15T01:12:37;7.53;;;3.60;;
14516;SDS011;7344;50.864;4.362;2024-02-15T01:15:02;5.90;;;3.50;;
14516;SDS011;7344;50.864;4.362;2024-02-15T01:17:28;6.33;;;3.40;;
14516;SDS011;7344;50.864;4.362;2024-02-15T01:19:53;10.47;;;3.60;;
14516;SDS011;7344;50.864;4.362;2024-02-15T01:22:20;8.60;;;3.70;;
14516;SDS011;7344;50.864;4.362;2024-02-15T01:24:48;6.83;;;3.40;;
14516;SDS011;7344;50.864;4.362;2024-02-15T01:27:14;8.60;;;3.73;;
14516;SDS011;7344;50.864;4.362;2024-02-15T01:29:39;6.07;;;3.10;;
14516;SDS011;7344;50.864;4.362;2024-02-15T01:32:06;7.60;;;3.27;;
14516;SDS011;7344;50.864;4.362;2024-02-15T01:34:31;7.20;;;2.90;;
14516;SDS011;7344;50.864;4.362;2024-02-15T01:36:57;8.80;;;3.57;;
14516;SDS011;7344;50.864;4.362;2024-02-15T01:39:23;4.70;;;2.97;;
14516;SDS011;7344;50.864;4.362;2024-02-15T01:41:48;7.50;;;3.00;;
14516;SDS011;7344;50.864;4.362;2024-02-15T01:44:20;5.97;;;2.90;;
14516;SDS011;7344;50.864;4.362;2024-02-15T01:46:49;9.63;;;3.20;;
14516;SDS011;7344;50.864;4.362;2024-02-15T01:49:17;4.57;;;3.07;;
14516;SDS011;7344;50.864;4.362;2024-02-15T01:51:43;8.37;;;3.10;;
14516;SDS011;7344;50.864;4.362;2024-02-15T01:54:10;12.87;;;3.40;;
14516;SDS011;7344;50.864;4.362;2024-02-15T01:56:38;8.80;;;2.90;;
14516;SDS011;7344;50.864;4.362;2024-02-15T01:59:04;6.77;;;3.07;;
14516;SDS011;7344;50.864;4.362;2024-02-15T02:01:31;7.33;;;2.87;;
14516;SDS011;7344;50.864;4.362;2024-02-15T02:04:00;7.70;;;3.40;;
14516;SDS011;7344;50.864;4.362;2024-02-15T02:06:26;5.70;;;3.10;;
14516;SDS011;7344;50.864;4.362;2024-02-15T02:08:53;6.17;;;2.90;;
14516;SDS011;7344;50.864;4.362;2024-02-15T02:11:20;9.73;;;3.30;;
14516;SDS011;7344;50.864;4.362;2024-02-15T02:13:46;7.07;;;2.93;;
14516;SDS011;7344;50.864;4.362;2024-02-15T02:16:24;5.47;;;2.80;;
14516;SDS011;7344;50.864;4.362;2024-02-15T02:18:51;8.63;;;3.00;;
14516;SDS011;7344;50.864;4.362;2024-02-15T02:21:17;8.10;;;3.10;;
14516;SDS011;7344;50.864;4.362;2024-02-15T02:23:43;6.83;;;2.90;;
14516;SDS011;7344;50.864;4.362;2024-02-15T02:26:16;5.47;;;2.80;;
14516;SDS011;7344;50.864;4.362;2024-02-15T02:28:42;8.77;;;3.23;;
14516;SDS011;7344;50.864;4.362;2024-02-15T02:31:07;7.87;;;3.10;;
14516;SDS011;7344;50.864;4.362;2024-02-15T02:33:36;5.77;;;2.60;;
14516;SDS011;7344;50.864;4.362;2024-02-15T02:36:02;8.10;;;3.00;;
14516;SDS011;7344;50.864;4.362;2024-02-15T02:38:28;6.03;;;2.70;;
14516;SDS011;7344;50.864;4.362;2024-02-15T02:40:53;6.90;;;2.93;;
14516;SDS011;7344;50.864;4.362;2024-02-15T02:43:19;5.20;;;3.00;;
14516;SDS011;7344;50.864;4.362;2024-02-15T02:45:44;6.03;;;2.90;;
14516;SDS011;7344;50.864;4.362;2024-02-15T02:48:10;3.77;;;2.43;;
14516;SDS011;7344;50.864;4.362;2024-02-15T02:50:36;8.63;;;3.00;;
14516;SDS011;7344;50.864;4.362;2024-02-15T02:53:02;6.87;;;2.83;;
14516;SDS011;7344;50.864;4.362;2024-02-15T02:55:28;5.80;;;2.50;;
14516;SDS011;7344;50.864;4.362;2024-02-15T02:57:54;4.80;;;2.50;;
14516;SDS011;7344;50.864;4.362;2024-02-15T03:00:20;3.07;;;2.60;;
14516;SDS011;7344;50.864;4.362;2024-02-15T03:02:46;9.03;;;2.90;;
14516;SDS011;7344;50.864;4.362;2024-02-15T03:05:12;4.20;;;2.63;;
14516;SDS011;7344;50.864;4.362;2024-02-15T03:07:38;7.50;;;2.70;;
14516;SDS011;7344;50.864;4.362;2024-02-15T03:10:05;4.87;;;2.57;;
14516;SDS011;7344;50.864;4.362;2024-02-15T03:12:35;5.73;;;2.90;;
14516;SDS011;7344;50.864;4.362;2024-02-15T03:15:05;3.93;;;3.00;;
14516;SDS011;7344;50.864;4.362;2024-02-15T03:17:37;4.80;;;2.60;;
14516;SDS011;7344;50.864;4.362;2024-02-15T03:20:07;6.03;;;2.97;;
14516;SDS011;7344;50.864;4.362;2024-02-15T03:22:45;5.33;;;2.40;;
14516;SDS011;7344;50.864;4.362;2024-02-15T03:25:18;6.60;;;2.80;;
14516;SDS011;7344;50.864;4.362;2024-02-15T03:27:44;5.10;;;3.13;;
14516;SDS011;7344;50.864;4.362;2024-02-15T03:30:09;6.17;;;2.90;;
14516;SDS011;7344;50.864;4.362;2024-02-15T03:32:35;4.43;;;2.80;;
14516;SDS011;7344;50.864;4.362;2024-02-15T03:35:02;4.10;;;2.50;;
14516;SDS011;7344;50.864;4.362;2024-02-15T03:37:28;8.50;;;2.60;;
14516;SDS011;7344;50.864;4.362;2024-02-15T03:39:54;4.57;;;2.57;;
14516;SDS011;7344;50.864;4.362;2024-02-15T03:42:20;4.93;;;2.80;;
14516;SDS011;7344;50.864;4.362;2024-02-15T03:44:45;5.27;;;3.07;;
14516;SDS011;7344;50.864;4.362;2024-02-15T03:47:12;8.07;;;3.30;;
14516;SDS011;7344;50.864;4.362;2024-02-15T03:49:39;5.93;;;3.03;;
14516;SDS011;7344;50.864;4.362;2024-02-15T03:52:07;7.37;;;2.70;;
14516;SDS011;7344;50.864;4.362;2024-02-15T03:54:35;4.57;;;2.50;;
14516;SDS011;7344;50.864;4.362;2024-02-15T03:57:01;5.33;;;2.60;;
14516;SDS011;7344;50.864;4.362;2024-02-15T03:59:26;5.87;;;2.70;;
14516;SDS011;7344;50.864;4.362;2024-02-15T04:01:52;9.33;;;2.57;;
14516;SDS011;7344;50.864;4.362;2024-02-15T04:04:19;4.77;;;2.63;;
14516;SDS011;7344;50.864;4.362;2024-02-15T04:06:51;5.73;;;2.67;;
14516;SDS011;7344;50.864;4.362;2024-02-15T04:09:17;10.80;;;3.50;;
14516;SDS011;7344;50.864;4.362;2024-02-15T04:11:44;8.10;;;2.93;;
14516;SDS011;7344;50.864;4.362;2024-02-15T04:14:12;7.07;;;3.03;;
14516;SDS011;7344;50.864;4.362;2024-02-15T04:16:37;6.87;;;2.93;;
14516;SDS011;7344;50.864;4.362;2024-02-15T04:19:03;7.20;;;3.37;;
14516;SDS011;7344;50.864;4.362;2024-02-15T04:21:29;6.50;;;2.87;;
14516;SDS011;7344;50.864;4.362;2024-02-15T04:23:55;5.63;;;3.07;;
14516;SDS011;7344;50.864;4.362;2024-02-15T04:26:21;8.20;;;3.40;;
14516;SDS011;7344;50.864;4.362;2024-02-15T04:28:51;6.13;;;2.97;;
14516;SDS011;7344;50.864;4.362;2024-02-15T04:31:17;7.60;;;3.10;;
14516;SDS011;7344;50.864;4.362;2024-02-15T04:33:43;8.77;;;3.50;;
14516;SDS011;7344;50.864;4.362;2024-02-15T04:36:09;5.27;;;3.13;;
14516;SDS011;7344;50.864;4.362;2024-02-15T04:38:34;5.40;;;3.13;;
14516;SDS011;7344;50.864;4.362;2024-02-15T04:41:03;7.93;;;3.30;;
14516;SDS011;7344;50.864;4.362;2024-02-15T04:43:30;7.97;;;3.50;;
14516;SDS011;7344;50.864;4.362;2024-02-15T04:45:58;4.90;;;3.10;;
14516;SDS011;7344;50.864;4.362;2024-02-15T04:48:25;9.00;;;3.20;;
14516;SDS011;7344;50.864;4.362;2024-02-15T04:50:52;9.03;;;3.30;;
14516;SDS011;7344;50.864;4.362;2024-02-15T04:53:19;8.77;;;3.10;;
14516;SDS011;7344;50.864;4.362;2024-02-15T04:55:46;4.90;;;3.00;;
14516;SDS011;7344;50.864;4.362;2024-02-15T04:58:11;5.77;;;2.90;;
14516;SDS011;7344;50.864;4.362;2024-02-15T05:00:37;11.20;;;3.13;;
14516;SDS011;7344;50.864;4.362;2024-02-15T05:03:03;5.07;;;2.67;;
14516;SDS011;7344;50.864;4.362;2024-02-15T05:05:29;7.43;;;2.80;;
14516;SDS011;7344;50.864;4.362;2024-02-15T05:07:54;6.63;;;2.80;;
14516;SDS011;7344;50.864;4.362;2024-02-15T05:10:20;5.73;;;2.77;;
14516;SDS011;7344;50.864;4.362;2024-02-15T05:12:45;6.20;;;2.43;;
14516;SDS011;7344;50.864;4.362;2024-02-15T05:15:14;6.03;;;2.30;;
14516;SDS011;7344;50.864;4.362;2024-02-15T05:17:42;6.40;;;2.50;;
14516;SDS011;7344;50.864;4.362;2024-02-15T05:20:11;3.77;;;2.30;;
14516;SDS011;7344;50.864;4.362;2024-02-15T05:22:38;6.80;;;2.47;;
14516;SDS011;7344;50.864;4.362;2024-02-15T05:25:05;3.90;;;1.90;;
14516;SDS011;7344;50.864;4.362;2024-02-15T05:27:32;4.20;;;2.07;;
14516;SDS011;7344;50.864;4.362;2024-02-15T05:29:58;2.53;;;2.10;;
14516;SDS011;7344;50.864;4.362;2024-02-15T05:32:24;6.70;;;2.30;;
14516;SDS011;7344;50.864;4.362;2024-02-15T05:34:51;3.90;;;1.83;;
14516;SDS011;7344;50.864;4.362;2024-02-15T05:37:16;3.57;;;2.20;;
14516;SDS011;7344;50.864;4.362;2024-02-15T05:39:42;7.10;;;2.33;;
14516;SDS011;7344;50.864;4.362;2024-02-15T05:42:08;4.97;;;2.00;;
14516;SDS011;7344;50.864;4.362;2024-02-15T05:44:35;4.13;;;2.10;;
14516;SDS011;7344;50.864;4.362;2024-02-15T05:47:01;4.63;;;1.93;;
14516;SDS011;7344;50.864;4.362;2024-02-15T05:49:26;2.37;;;1.97;;
14516;SDS011;7344;50.864;4.362;2024-02-15T05:51:52;5.10;;;1.97;;
14516;SDS011;7344;50.864;4.362;2024-02-15T05:54:18;3.80;;;1.97;;
14516;SDS011;7344;50.864;4.362;2024-02-15T05:56:44;3.80;;;1.93;;
14516;SDS011;7344;50.864;4.362;2024-02-15T05:59:10;3.40;;;2.03;;
14516;SDS011;7344;50.864;4.362;2024-02-15T06:01:36;5.47;;;2.50;;
14516;SDS011;7344;50.864;4.362;2024-02-15T06:04:03;2.67;;;2.03;;
14516;SDS011;7344;50.864;4.362;2024-02-15T06:06:33;4.20;;;2.13;;
14516;SDS011;7344;50.864;4.362;2024-02-15T06:08:59;3.43;;;2.03;;
14516;SDS011;7344;50.864;4.362;2024-02-15T06:11:25;4.33;;;1.70;;
14516;SDS011;7344;50.864;4.362;2024-02-15T06:13:51;4.33;;;1.93;;
14516;SDS011;7344;50.864;4.362;2024-02-15T06:16:17;6.00;;;1.93;;
14516;SDS011;7344;50.864;4.362;2024-02-15T06:18:43;3.83;;;1.90;;
14516;SDS011;7344;50.864;4.362;2024-02-15T06:21:08;4.50;;;2.17;;
14516;SDS011;7344;50.864;4.362;2024-02-15T06:23:34;4.67;;;2.20;;
14516;SDS011;7344;50.864;4.362;2024-02-15T06:26:00;4.20;;;1.93;;
14516;SDS011;7344;50.864;4.362;2024-02-15T06:28:27;5.57;;;1.87;;
14516;SDS011;7344;50.864;4.362;2024-02-15T06:31:13;3.30;;;2.10;;
14516;SDS011;7344;50.864;4.362;2024-02-15T06:33:57;2.93;;;2.13;;
14516;SDS011;7344;50.864;4.362;2024-02-15T06:36:54;4.63;;;2.10;;
14516;SDS011;7344;50.864;4.362;2024-02-15T06:39:53;3.47;;;1.70;;
14516;SDS011;7344;50.864;4.362;2024-02-15T06:42:19;8.67;;;2.13;;
14516;SDS011;7344;50.864;4.362;2024-02-15T06:44:45;8.00;;;2.20;;
14516;SDS011;7344;50.864;4.362;2024-02-15T06:47:11;2.70;;;2.20;;
14516;SDS011;7344;50.864;4.362;2024-02-15T06:49:40;4.80;;;1.73;;
14516;SDS011;7344;50.864;4.362;2024-02-15T06:52:09;6.30;;;2.03;;
14516;SDS011;7344;50.864;4.362;2024-02-15T06:54:37;4.60;;;2.30;;
14516;SDS011;7344;50.864;4.362;2024-02-15T06:57:06;6.23;;;3.43;;
14516;SDS011;7344;50.864;4.362;2024-02-15T06:59:32;4.67;;;2.70;;
14516;SDS011;7344;50.864;4.362;2024-02-15T07:01:58;4.73;;;2.10;;
14516;SDS011;7344;50.864;4.362;2024-02-15T07:04:24;3.80;;;2.30;;
14516;SDS011;7344;50.864;4.362;2024-02-15T07:06:53;3.83;;;2.20;;
14516;SDS011;7344;50.864;4.362;2024-02-15T07:09:22;4.80;;;2.20;;
14516;SDS011;7344;50.864;4.362;2024-02-15T07:11:52;4.40;;;2.13;;
14516;SDS011;7344;50.864;4.362;2024-02-15T07:14:17;4.40;;;2.37;;
14516;SDS011;7344;50.864;4.362;2024-02-15T07:16:47;4.13;;;2.03;;
14516;SDS011;7344;50.864;4.362;2024-02-15T07:19:14;4.27;;;2.30;;
14516;SDS011;7344;50.864;4.362;2024-02-15T07:21:40;4.77;;;2.40;;
14516;SDS011;7344;50.864;4.362;2024-02-15T07:24:06;5.77;;;2.10;;
14516;SDS011;7344;50.864;4.362;2024-02-15T07:26:32;2.23;;;2.00;;
14516;SDS011;7344;50.864;4.362;2024-02-15T07:28:59;6.73;;;2.47;;
14516;SDS011;7344;50.864;4.362;2024-02-15T07:31:28;3.80;;;2.00;;
14516;SDS011;7344;50.864;4.362;2024-02-15T07:33:54;3.50;;;2.10;;
14516;SDS011;7344;50.864;4.362;2024-02-15T07:36:20;4.50;;;2.30;;
14516;SDS011;7344;50.864;4.362;2024-02-15T07:38:46;4.60;;;2.27;;
14516;SDS011;7344;50.864;4.362;2024-02-15T07:41:13;4.90;;;2.17;;
14516;SDS011;7344;50.864;4.362;2024-02-15T07:43:41;4.87;;;2.13;;
14516;SDS011;7344;50.864;4.362;2024-02-15T07:46:07;2.57;;;2.20;;
14516;SDS011;7344;50.864;4.362;2024-02-15T07:48:38;4.90;;;2.13;;
14516;SDS011;7344;50.864;4.362;2024-02-15T07:51:04;3.73;;;1.90;;
14516;SDS011;7344;50.864;4.362;2024-02-15T07:53:34;5.03;;;2.20;;
14516;SDS011;7344;50.864;4.362;2024-02-15T07:56:00;5.13;;;2.17;;
14516;SDS011;7344;50.864;4.362;2024-02-15T07:58:25;4.40;;;2.30;;
14516;SDS011;7344;50.864;4.362;2024-02-15T08:00:51;4.40;;;2.50;;
14516;SDS011;7344;50.864;4.362;2024-02-15T08:03:17;7.10;;;2.80;;
14516;SDS011;7344;50.864;4.362;2024-02-15T08:05:42;7.13;;;2.40;;
14516;SDS011;7344;50.864;4.362;2024-02-15T08:08:08;4.60;;;2.37;;
14516;SDS011;7344;50.864;4.362;2024-02-15T08:10:33;3.87;;;2.17;;
14516;SDS011;7344;50.864;4.362;2024-02-15T08:12:59;6.40;;;2.27;;
14516;SDS011;7344;50.864;4.362;2024-02-15T08:15:25;4.73;;;2.17;;
14516;SDS011;7344;50.864;4.362;2024-02-15T08:17:52;4.67;;;2.30;;
14516;SDS011;7344;50.864;4.362;2024-02-15T08:20:20;2.63;;;1.80;;
14516;SDS011;7344;50.864;4.362;2024-02-15T08:22:48;4.13;;;2.20;;
14516;SDS011;7344;50.864;4.362;2024-02-15T08:25:14;2.97;;;2.23;;
14516;SDS011;7344;50.864;4.362;2024-02-15T08:27:48;3.30;;;2.27;;
14516;SDS011;7344;50.864;4.362;2024-02-15T08:30:16;5.23;;;2.70;;
14516;SDS011;7344;50.864;4.362;2024-02-15T08:32:42;2.90;;;2.00;;
14516;SDS011;7344;50.864;4.362;2024-02-15T08:35:10;4.07;;;2.20;;
14516;SDS011;7344;50.864;4.362;2024-02-15T08:37:37;3.67;;;2.20;;
14516;SDS011;7344;50.864;4.362;2024-02-15T08:40:04;6.40;;;2.80;;
14516;SDS011;7344;50.864;4.362;2024-02-15T08:42:42;4.50;;;2.20;;
14516;SDS011;7344;50.864;4.362;2024-02-15T08:45:09;6.33;;;2.33;;
14516;SDS011;7344;50.864;4.362;2024-02-15T08:47:38;4.63;;;2.33;;
14516;SDS011;7344;50.864;4.362;2024-02-15T08:50:06;2.73;;;2.23;;
14516;SDS011;7344;50.864;4.362;2024-02-15T08:52:38;5.17;;;2.20;;
14516;SDS011;7344;50.864;4.362;2024-02-15T08:55:08;4.90;;;2.60;;
14516;SDS011;7344;50.864;4.362;2024-02-15T08:57:34;4.03;;;2.30;;
14516;SDS011;7344;50.864;4.362;2024-02-15T09:00:03;6.93;;;2.97;;
14516;SDS011;7344;50.864;4.362;2024-02-15T09:02:47;6.30;;;2.50;;
14516;SDS011;7344;50.864;4.362;2024-02-15T09:05:14;4.53;;;2.28;;
14516;SDS011;7344;50.864;4.362;2024-02-15T09:07:40;6.40;;;2.47;;
14516;SDS011;7344;50.864;4.362;2024-02-15T09:10:07;3.88;;;2.13;;
14516;SDS011;7344;50.864;4.362;2024-02-15T09:12:35;4.10;;;2.40;;
14516;SDS011;7344;50.864;4.362;2024-02-15T09:15:03;6.15;;;2.63;;
14516;SDS011;7344;50.864;4.362;2024-02-15T09:17:29;5.20;;;2.33;;
14516;SDS011;7344;50.864;4.362;2024-02-15T09:19:57;6.57;;;3.00;;
14516;SDS011;7344;50.864;4.362;2024-02-15T09:22:23;7.88;;;3.00;;
14516;SDS011;7344;50.864;4.362;2024-02-15T09:24:49;5.53;;;3.30;;
14516;SDS011;7344;50.864;4.362;2024-02-15T09:27:14;7.40;;;2.60;;
14516;SDS011;7344;50.864;4.362;2024-02-15T09:29:40;4.65;;;2.60;;
14516;SDS011;7344;50.864;4.362;2024-02-15T09:32:07;5.40;;;2.88;;
14516;SDS011;7344;50.864;4.362;2024-02-15T09:34:32;5.88;;;2.80;;
14516;SDS011;7344;50.864;4.362;2024-02-15T09:36:58;6.93;;;3.03;;
14516;SDS011;7344;50.864;4.362;2024-02-15T09:39:24;6.10;;;2.38;;
14516;SDS011;7344;50.864;4.362;2024-02-15T09:41:49;5.25;;;2.33;;
14516;SDS011;7344;50.864;4.362;2024-02-15T09:44:23;5.35;;;2.45;;
14516;SDS011;7344;50.864;4.362;2024-02-15T09:46:53;3.33;;;2.58;;
14516;SDS011;7344;50.864;4.362;2024-02-15T09:49:26;5.82;;;2.03;;
14516;SDS011;7344;50.864;4.362;2024-02-15T09:51:52;4.07;;;2.25;;
14516;SDS011;7344;50.864;4.362;2024-02-15T09:54:18;4.97;;;2.22;;
14516;SDS011;7344;50.864;4.362;2024-02-15T09:56:47;9.38;;;2.83;;
14516;SDS011;7344;50.864;4.362;2024-02-15T09:59:17;3.78;;;2.00;;
14516;SDS011;7344;50.864;4.362;2024-02-15T10:01:44;10.05;;;2.92;;
14516;SDS011;7344;50.864;4.362;2024-02-15T10:04:12;4.00;;;2.50;;
14516;SDS011;7344;50.864;4.362;2024-02-15T10:06:41;5.32;;;2.20;;
14516;SDS011;7344;50.864;4.362;2024-02-15T10:12:02;7.20;;;2.70;;
14516;SDS011;7344;50.864;4.362;2024-02-15T10:14:31;5.25;;;2.28;;
14516;SDS011;7344;50.864;4.362;2024-02-15T10:17:00;3.53;;;2.10;;
14516;SDS011;7344;50.864;4.362;2024-02-15T10:19:31;4.47;;;2.35;;
14516;SDS011;7344;50.864;4.362;2024-02-15T10:22:06;4.13;;;2.08;;
14516;SDS011;7344;50.864;4.362;2024-02-15T10:24:33;4.10;;;2.58;;
14516;SDS011;7344;50.864;4.362;2024-02-15T10:27:02;6.15;;;2.50;;
14516;SDS011;7344;50.864;4.362;2024-02-15T10:29:35;7.40;;;2.65;;
14516;SDS011;7344;50.864;4.362;2024-02-15T10:32:02;8.18;;;2.10;;
14516;SDS011;7344;50.864;4.362;2024-02-15T10:34:28;3.28;;;2.40;;
14516;SDS011;7344;50.864;4.362;2024-02-15T10:36:56;5.50;;;2.20;;
14516;SDS011;7344;50.864;4.362;2024-02-15T10:39:41;8.65;;;2.15;;
14516;SDS011;7344;50.864;4.362;2024-02-15T10:42:07;6.30;;;2.17;;
14516;SDS011;7344;50.864;4.362;2024-02-15T10:44:36;4.63;;;2.33;;
14516;SDS011;7344;50.864;4.362;2024-02-15T10:47:05;4.07;;;2.08;;
14516;SDS011;7344;50.864;4.362;2024-02-15T10:49:32;6.40;;;2.50;;
14516;SDS011;7344;50.864;4.362;2024-02-15T10:51:59;5.45;;;2.20;;
14516;SDS011;7344;50.864;4.362;2024-02-15T10:56:54;6.15;;;2.53;;
14516;SDS011;7344;50.864;4.362;2024-02-15T10:59:28;5.35;;;2.38;;
14516;SDS011;7344;50.864;4.362;2024-02-15T11:01:59;4.05;;;2.00;;
14516;SDS011;7344;50.864;4.362;2024-02-15T11:04:25;5.47;;;2.42;;
14516;SDS011;7344;50.864;4.362;2024-02-15T11:06:57;3.00;;;2.40;;
14516;SDS011;7344;50.864;4.362;2024-02-15T11:09:25;7.18;;;3.70;;
14516;SDS011;7344;50.864;4.362;2024-02-15T11:11:53;2.85;;;2.35;;
14516;SDS011;7344;50.864;4.362;2024-02-15T11:16:54;3.30;;;1.88;;
14516;SDS011;7344;50.864;4.362;2024-02-15T11:22:09;1.95;;;1.77;;
14516;SDS011;7344;50.864;4.362;2024-02-15T11:24:47;3.47;;;1.98;;
14516;SDS011;7344;50.864;4.362;2024-02-15T11:35:09;3.78;;;2.13;;
14516;SDS011;7344;50.864;4.362;2024-02-15T11:40:19;2.78;;;1.92;;
14516;SDS011;7344;50.864;4.362;2024-02-15T11:42:50;4.63;;;2.22;;
14516;SDS011;7344;50.864;4.362;2024-02-15T11:45:19;2.30;;;1.90;;
14516;SDS011;7344;50.864;4.362;2024-02-15T11:47:47;5.03;;;1.85;;
14516;SDS011;7344;50.864;4.362;2024-02-15T11:50:17;7.45;;;5.75;;
14516;SDS011;7344;50.864;4.362;2024-02-15T11:52:44;8.32;;;3.83;;
14516;SDS011;7344;50.864;4.362;2024-02-15T11:55:11;6.60;;;2.17;;
14516;SDS011;7344;50.864;4.362;2024-02-15T11:57:41;5.35;;;2.00;;
14516;SDS011;7344;50.864;4.362;2024-02-15T12:00:24;2.13;;;1.70;;
14516;SDS011;7344;50.864;4.362;2024-02-15T12:03:08;1.92;;;1.63;;
14516;SDS011;7344;50.864;4.362;2024-02-15T12:05:54;2.42;;;1.83;;
14516;SDS011;7344;50.864;4.362;2024-02-15T12:08:38;6.20;;;1.77;;
14516;SDS011;7344;50.864;4.362;2024-02-15T12:11:23;3.67;;;2.15;;
14516;SDS011;7344;50.864;4.362;2024-02-15T12:14:11;8.65;;;2.40;;
14516;SDS011;7344;50.864;4.362;2024-02-15T12:17:14;4.80;;;2.42;;
14516;SDS011;7344;50.864;4.362;2024-02-15T12:20:02;4.95;;;2.20;;
14516;SDS011;7344;50.864;4.362;2024-02-15T12:22:43;3.08;;;2.20;;
14516;SDS011;7344;50.864;4.362;2024-02-15T12:25:15;3.78;;;2.70;;
14516;SDS011;7344;50.864;4.362;2024-02-15T12:27:42;3.85;;;2.45;;
14516;SDS011;7344;50.864;4.362;2024-02-15T12:30:15;3.10;;;2.17;;
14516;SDS011;7344;50.864;4.362;2024-02-15T12:32:45;6.03;;;2.70;;
14516;SDS011;7344;50.864;4.362;2024-02-15T12:35:13;4.28;;;2.13;;
14516;SDS011;7344;50.864;4.362;2024-02-15T12:37:47;6.85;;;2.90;;
14516;SDS011;7344;50.864;4.362;2024-02-15T12:40:19;1.98;;;1.77;;
14516;SDS011;7344;50.864;4.362;2024-02-15T12:42:47;3.95;;;2.35;;
14516;SDS011;7344;50.864;4.362;2024-02-15T12:45:16;5.03;;;2.85;;
14516;SDS011;7344;50.864;4.362;2024-02-15T12:47:45;3.33;;;2.03;;
14516;SDS011;7344;50.864;4.362;2024-02-15T12:50:21;2.65;;;2.33;;
14516;SDS011;7344;50.864;4.362;2024-02-15T12:52:49;4.57;;;2.72;;
14516;SDS011;7344;50.864;4.362;2024-02-15T12:57:48;3.40;;;1.90;;
14516;SDS011;7344;50.864;4.362;2024-02-15T13:00:18;1.80;;;1.65;;
14516;SDS011;7344;50.864;4.362;2024-02-15T13:02:46;7.72;;;2.10;;
14516;SDS011;7344;50.864;4.362;2024-02-15T13:05:14;4.28;;;2.05;;
14516;SDS011;7344;50.864;4.362;2024-02-15T13:07:40;4.13;;;2.03;;
14516;SDS011;7344;50.864;4.362;2024-02-15T13:10:06;1.58;;;1.48;;
14516;SDS011;7344;50.864;4.362;2024-02-15T13:12:33;2.05;;;1.60;;
14516;SDS011;7344;50.864;4.362;2024-02-15T13:15:03;4.60;;;1.83;;
14516;SDS011;7344;50.864;4.362;2024-02-15T13:17:31;7.15;;;1.65;;
14516;SDS011;7344;50.864;4.362;2024-02-15T13:19:58;2.83;;;1.60;;
14516;SDS011;7344;50.864;4.362;2024-02-15T13:22:31;4.15;;;1.50;;
14516;SDS011;7344;50.864;4.362;2024-02-15T13:24:57;2.45;;;1.20;;
14516;SDS011;7344;50.864;4.362;2024-02-15T13:27:23;1.17;;;1.00;;
14516;SDS011;7344;50.864;4.362;2024-02-15T13:29:49;3.10;;;1.50;;
14516;SDS011;7344;50.864;4.362;2024-02-15T13:32:15;5.80;;;1.80;;
14516;SDS011;7344;50.864;4.362;2024-02-15T13:34:42;2.70;;;1.48;;
14516;SDS011;7344;50.864;4.362;2024-02-15T13:37:10;2.85;;;1.70;;
14516;SDS011;7344;50.864;4.362;2024-02-15T13:39:38;2.58;;;1.20;;
14516;SDS011;7344;50.864;4.362;2024-02-15T13:42:08;2.20;;;1.35;;
14516;SDS011;7344;50.864;4.362;2024-02-15T13:44:33;1.45;;;1.13;;
14516;SDS011;7344;50.864;4.362;2024-02-15T13:46:59;4.15;;;2.00;;
14516;SDS011;7344;50.864;4.362;2024-02-15T13:49:25;2.42;;;1.30;;
14516;SDS011;7344;50.864;4.362;2024-02-15T13:51:51;7.00;;;2.20;;
14516;SDS011;7344;50.864;4.362;2024-02-15T13:54:17;1.60;;;1.50;;
14516;SDS011;7344;50.864;4.362;2024-02-15T13:56:43;1.52;;;1.38;;
14516;SDS011;7344;50.864;4.362;2024-02-15T13:59:09;4.03;;;2.22;;
14516;SDS011;7344;50.864;4.362;2024-02-15T14:01:34;4.88;;;2.42;;
14516;SDS011;7344;50.864;4.362;2024-02-15T14:04:08;2.90;;;1.85;;
14516;SDS011;7344;50.864;4.362;2024-02-15T14:06:34;3.03;;;1.40;;
14516;SDS011;7344;50.864;4.362;2024-02-15T14:09:02;3.30;;;1.50;;
14516;SDS011;7344;50.864;4.362;2024-02-15T14:11:28;2.22;;;1.42;;
14516;SDS011;7344;50.864;4.362;2024-02-15T14:13:53;2.90;;;1.50;;
14516;SDS011;7344;50.864;4.362;2024-02-15T14:16:23;2.08;;;1.33;;
14516;SDS011;7344;50.864;4.362;2024-02-15T14:18:51;2.28;;;1.48;;
14516;SDS011;7344;50.864;4.362;2024-02-15T14:21:17;2.05;;;1.60;;
14516;SDS011;7344;50.864;4.362;2024-02-15T14:23:43;1.67;;;1.20;;
14516;SDS011;7344;50.864;4.362;2024-02-15T14:26:09;2.80;;;1.40;;
14516;SDS011;7344;50.864;4.362;2024-02-15T14:28:35;5.90;;;2.00;;
14516;SDS011;7344;50.864;4.362;2024-02-15T14:31:01;3.78;;;1.63;;
14516;SDS011;7344;50.864;4.362;2024-02-15T14:33:45;1.60;;;1.50;;
14516;SDS011;7344;50.864;4.362;2024-02-15T14:36:11;3.00;;;1.83;;
14516;SDS011;7344;50.864;4.362;2024-02-15T14:38:39;1.50;;;1.40;;
14516;SDS011;7344;50.864;4.362;2024-02-15T14:41:05;2.35;;;1.48;;
14516;SDS011;7344;50.864;4.362;2024-02-15T14:43:31;2.63;;;1.30;;
14516;SDS011;7344;50.864;4.362;2024-02-15T14:45:58;2.92;;;1.50;;
14516;SDS011;7344;50.864;4.362;2024-02-15T14:48:26;1.88;;;1.20;;
14516;SDS011;7344;50.864;4.362;2024-02-15T14:50:52;3.80;;;1.40;;
14516;SDS011;7344;50.864;4.362;2024-02-15T14:53:18;2.45;;;1.20;;
14516;SDS011;7344;50.864;4.362;2024-02-15T14:55:44;3.00;;;1.38;;
14516;SDS011;7344;50.864;4.362;2024-02-15T14:58:12;2.17;;;1.88;;
14516;SDS011;7344;50.864;4.362;2024-02-15T15:00:41;2.03;;;1.65;;
14516;SDS011;7344;50.864;4.362;2024-02-15T15:03:08;2.33;;;1.33;;
14516;SDS011;7344;50.864;4.362;2024-02-15T15:05:34;2.22;;;1.98;;
14516;SDS011;7344;50.864;4.362;2024-02-15T15:08:18;1.70;;;1.40;;
14516;SDS011;7344;50.864;4.362;2024-02-15T15:11:02;1.80;;;1.70;;
14516;SDS011;7344;50.864;4.362;2024-02-15T15:13:46;1.40;;;1.30;;
14516;SDS011;7344;50.864;4.362;2024-02-15T15:16:12;2.30;;;1.52;;
14516;SDS011;7344;50.864;4.362;2024-02-15T15:18:42;2.95;;;1.40;;
14516;SDS011;7344;50.864;4.362;2024-02-15T15:21:10;2.20;;;1.52;;
14516;SDS011;7344;50.864;4.362;2024-02-15T15:23:37;5.32;;;1.98;;
14516;SDS011;7344;50.864;4.362;2024-02-15T15:26:04;2.72;;;1.83;;
14516;SDS011;7344;50.864;4.362;2024-02-15T15:28:31;3.00;;;2.13;;
14516;SDS011;7344;50.864;4.362;2024-02-15T15:30:57;3.03;;;1.55;;